sensor_id;sensor_type;location;lat;lon;timestamp;pressure;altitude;pressure_sealevel;temperature;humidity
75136;BME280;63707;52.212;9.540;2022-09-21T05:44:11;101097.38;;;10.53;58.95
75136;BME280;63707;52.212;9.540;2022-09-21T05:46:39;101114.06;;;7.23;72.44
75136;BME280;63707;52.212;9.540;2022-09-21T05:49:14;101127.53;;;5.15;82.16
75136;BME280;63707;52.212;9.540;2022-09-21T05:51:50;101128.28;;;4.69;85.62
75136;BME280;63707;52.212;9.540;2022-09-21T05:54:21;101126.84;;;4.65;86.01
75136;BME280;63707;52.212;9.540;2022-09-21T05:56:53;101129.44;;;4.76;85.38
75136;BME280;63707;52.212;9.540;2022-09-21T05:59:37;101128.72;;;4.84;85.84
75136;BME280;63707;52.212;9.540;2022-09-21T06:02:17;101118.31;;;4.98;84.75
75136;BME280;63707;52.212;9.540;2022-09-21T06:04:47;101128.72;;;4.84;80.30
75136;BME280;63707;52.212;9.540;2022-09-21T06:07:14;101131.13;;;4.77;85.93
75136;BME280;63707;52.212;9.540;2022-09-21T06:09:39;101135.53;;;4.78;88.01
75136;BME280;63707;52.212;9.540;2022-09-21T06:12:05;101142.22;;;4.74;88.00
75136;BME280;63707;52.212;9.540;2022-09-21T06:14:32;101143.66;;;4.78;88.55
75136;BME280;63707;52.212;9.540;2022-09-21T06:16:57;101147.19;;;4.79;87.80
75136;BME280;63707;52.212;9.540;2022-09-21T06:19:23;101144.63;;;4.87;87.90
75136;BME280;63707;52.212;9.540;2022-09-21T06:21:48;101147.19;;;4.98;88.47
75136;BME280;63707;52.212;9.540;2022-09-21T06:24:14;101148.03;;;4.98;88.29
75136;BME280;63707;52.212;9.540;2022-09-21T06:26:39;101157.41;;;5.04;88.68
75136;BME280;63707;52.212;9.540;2022-09-21T06:29:05;101152.28;;;5.20;88.29
75136;BME280;63707;52.212;9.540;2022-09-21T06:31:32;101151.69;;;5.36;87.39
75136;BME280;63707;52.212;9.540;2022-09-21T06:33:57;101145.16;;;5.29;87.96
75136;BME280;63707;52.212;9.540;2022-09-21T06:36:23;101152.97;;;5.32;87.48
75136;BME280;63707;52.212;9.540;2022-09-21T06:38:48;101149.38;;;5.41;87.52
75136;BME280;63707;52.212;9.540;2022-09-21T06:41:14;101152.66;;;5.45;87.61
75136;BME280;63707;52.212;9.540;2022-09-21T06:43:40;101148.75;;;5.57;87.07
75136;BME280;63707;52.212;9.540;2022-09-21T06:46:05;101144.47;;;5.64;86.93
75136;BME280;63707;52.212;9.540;2022-09-21T06:48:33;101148.13;;;5.82;85.65
75136;BME280;63707;52.212;9.540;2022-09-21T06:51:02;101148.13;;;6.19;84.84
75136;BME280;63707;52.212;9.540;2022-09-21T06:53:29;101149.53;;;6.14;85.66
75136;BME280;63707;52.212;9.540;2022-09-21T06:55:59;101160.78;;;6.19;85.45
75136;BME280;63707;52.212;9.540;2022-09-21T06:58:25;101149.69;;;6.40;85.63
75136;BME280;63707;52.212;9.540;2022-09-21T07:00:50;101145.50;;;6.45;84.91
75136;BME280;63707;52.212;9.540;2022-09-21T07:03:16;101141.97;;;7.42;81.18
75136;BME280;63707;52.212;9.540;2022-09-21T07:05:44;101143.88;;;7.75;79.89
75136;BME280;63707;52.212;9.540;2022-09-21T07:08:10;101144.34;;;7.45;80.55
75136;BME280;63707;52.212;9.540;2022-09-21T07:10:36;101152.28;;;6.77;83.37
75136;BME280;63707;52.212;9.540;2022-09-21T07:13:02;101152.72;;;6.90;81.51
75136;BME280;63707;52.212;9.540;2022-09-21T07:15:28;101152.28;;;6.77;83.71
75136;BME280;63707;52.212;9.540;2022-09-21T07:17:54;101156.84;;;6.76;83.14
75136;BME280;63707;52.212;9.540;2022-09-21T07:20:20;101156.50;;;6.97;83.18
75136;BME280;63707;52.212;9.540;2022-09-21T07:22:47;101160.81;;;7.25;82.61
75136;BME280;63707;52.212;9.540;2022-09-21T07:25:13;101163.91;;;7.31;82.64
75136;BME280;63707;52.212;9.540;2022-09-21T07:27:39;101167.84;;;7.36;82.69
75136;BME280;63707;52.212;9.540;2022-09-21T07:30:05;101166.16;;;10.16;71.11
75136;BME280;63707;52.212;9.540;2022-09-21T07:32:31;101142.09;;;14.77;57.45
75136;BME280;63707;52.212;9.540;2022-09-21T07:34:57;101140.44;;;17.54;48.21
75136;BME280;63707;52.212;9.540;2022-09-21T07:37:23;101127.72;;;22.04;38.09
75136;BME280;63707;52.212;9.540;2022-09-21T07:39:50;101124.72;;;23.94;33.47
75136;BME280;63707;52.212;9.540;2022-09-21T07:42:16;101139.59;;;19.41;41.83
75136;BME280;63707;52.212;9.540;2022-09-21T07:44:44;101140.97;;;18.61;43.42
75136;BME280;63707;52.212;9.540;2022-09-21T07:47:10;101126.81;;;22.85;36.25
75136;BME280;63707;52.212;9.540;2022-09-21T07:49:37;101115.19;;;23.84;34.82
75136;BME280;63707;52.212;9.540;2022-09-21T07:52:03;101124.59;;;22.66;34.67
75136;BME280;63707;52.212;9.540;2022-09-21T07:54:29;101133.88;;;20.93;38.72
75136;BME280;63707;52.212;9.540;2022-09-21T07:56:56;101129.06;;;21.84;36.45
75136;BME280;63707;52.212;9.540;2022-09-21T07:59:40;101130.09;;;20.19;39.49
75136;BME280;63707;52.212;9.540;2022-09-21T08:02:06;101129.78;;;21.13;38.44
75136;BME280;63707;52.212;9.540;2022-09-21T08:04:31;101120.19;;;23.50;37.17
75136;BME280;63707;52.212;9.540;2022-09-21T08:06:57;101122.50;;;23.27;33.93
75136;BME280;63707;52.212;9.540;2022-09-21T08:09:22;101132.66;;;22.02;36.15
75136;BME280;63707;52.212;9.540;2022-09-21T08:11:48;101126.41;;;23.58;33.35
75136;BME280;63707;52.212;9.540;2022-09-21T08:14:15;101134.31;;;23.71;33.38
75136;BME280;63707;52.212;9.540;2022-09-21T08:16:44;101117.72;;;25.31;31.77
75136;BME280;63707;52.212;9.540;2022-09-21T08:19:10;101124.63;;;24.26;33.42
75136;BME280;63707;52.212;9.540;2022-09-21T08:21:36;101136.25;;;22.84;35.69
75136;BME280;63707;52.212;9.540;2022-09-21T08:24:01;101105.91;;;27.58;29.27
75136;BME280;63707;52.212;9.540;2022-09-21T08:26:27;101117.81;;;26.96;31.75
75136;BME280;63707;52.212;9.540;2022-09-21T08:28:53;101119.53;;;24.65;31.80
75136;BME280;63707;52.212;9.540;2022-09-21T08:31:21;101117.16;;;25.65;33.03
75136;BME280;63707;52.212;9.540;2022-09-21T08:33:48;101128.59;;;24.40;33.03
75136;BME280;63707;52.212;9.540;2022-09-21T08:36:14;101134.41;;;22.08;37.79
75136;BME280;63707;52.212;9.540;2022-09-21T08:38:40;101120.22;;;25.53;31.62
75136;BME280;63707;52.212;9.540;2022-09-21T08:41:13;101127.66;;;23.45;34.23
75136;BME280;63707;52.212;9.540;2022-09-21T08:43:41;101112.97;;;27.17;30.28
75136;BME280;63707;52.212;9.540;2022-09-21T08:46:10;101141.88;;;20.26;41.52
75136;BME280;63707;52.212;9.540;2022-09-21T08:48:41;101141.88;;;21.06;39.65
75136;BME280;63707;52.212;9.540;2022-09-21T08:51:14;101140.31;;;20.82;41.32
75136;BME280;63707;52.212;9.540;2022-09-21T08:53:42;101137.69;;;20.12;42.28
75136;BME280;63707;52.212;9.540;2022-09-21T08:56:10;101125.78;;;25.13;34.26
75136;BME280;63707;52.212;9.540;2022-09-21T08:58:36;101140.13;;;19.62;43.26
75136;BME280;63707;52.212;9.540;2022-09-21T09:01:20;101137.81;;;20.97;40.94
75136;BME280;63707;52.212;9.540;2022-09-21T09:03:57;101132.53;;;21.41;40.35
75136;BME280;63707;52.212;9.540;2022-09-21T09:06:30;101125.09;;;22.36;38.71
75136;BME280;63707;52.212;9.540;2022-09-21T09:09:09;101127.06;;;22.18;40.19
75136;BME280;63707;52.212;9.540;2022-09-21T09:11:50;101144.47;;;19.28;45.66
75136;BME280;63707;52.212;9.540;2022-09-21T09:14:39;101123.91;;;23.61;36.89
75136;BME280;63707;52.212;9.540;2022-09-21T09:17:19;101127.00;;;23.65;36.52
75136;BME280;63707;52.212;9.540;2022-09-21T09:19:55;101143.47;;;20.74;42.74
75136;BME280;63707;52.212;9.540;2022-09-21T09:22:28;101123.91;;;24.51;35.07
75136;BME280;63707;52.212;9.540;2022-09-21T09:24:58;101109.22;;;24.70;33.82
75136;BME280;63707;52.212;9.540;2022-09-21T09:27:28;101121.81;;;23.73;38.70
75136;BME280;63707;52.212;9.540;2022-09-21T09:30:00;101126.56;;;23.78;36.87
75136;BME280;63707;52.212;9.540;2022-09-21T09:32:32;101133.91;;;23.94;35.74
75136;BME280;63707;52.212;9.540;2022-09-21T09:35:04;101124.88;;;24.92;35.77
75136;BME280;63707;52.212;9.540;2022-09-21T09:37:35;101125.28;;;23.27;37.41
75136;BME280;63707;52.212;9.540;2022-09-21T09:40:05;101127.75;;;25.32;35.24
75136;BME280;63707;52.212;9.540;2022-09-21T09:42:40;101140.56;;;21.93;41.00
75136;BME280;63707;52.212;9.540;2022-09-21T09:45:29;101147.56;;;21.62;41.55
75136;BME280;63707;52.212;9.540;2022-09-21T09:48:09;101123.41;;;27.06;31.13
75136;BME280;63707;52.212;9.540;2022-09-21T09:50:40;101148.84;;;22.48;38.04
75136;BME280;63707;52.212;9.540;2022-09-21T09:53:09;101132.81;;;24.47;36.07
75136;BME280;63707;52.212;9.540;2022-09-21T09:55:37;101146.28;;;22.85;39.18
75136;BME280;63707;52.212;9.540;2022-09-21T09:58:04;101140.16;;;23.42;37.68
75136;BME280;63707;52.212;9.540;2022-09-21T10:00:29;101146.97;;;22.76;39.77
75136;BME280;63707;52.212;9.540;2022-09-21T10:02:56;101122.72;;;26.75;34.45
75136;BME280;63707;52.212;9.540;2022-09-21T10:05:32;101119.78;;;26.41;33.23
75136;BME280;63707;52.212;9.540;2022-09-21T10:08:00;101138.31;;;22.94;39.24
75136;BME280;63707;52.212;9.540;2022-09-21T10:10:32;101126.66;;;23.93;36.96
75136;BME280;63707;52.212;9.540;2022-09-21T10:13:05;101126.03;;;23.81;37.93
75136;BME280;63707;52.212;9.540;2022-09-21T10:15:40;101118.75;;;26.12;32.75
75136;BME280;63707;52.212;9.540;2022-09-21T10:18:14;101112.69;;;25.84;32.38
75136;BME280;63707;52.212;9.540;2022-09-21T10:20:52;101126.31;;;25.04;33.29
75136;BME280;63707;52.212;9.540;2022-09-21T10:23:19;101124.78;;;23.03;37.18
75136;BME280;63707;52.212;9.540;2022-09-21T10:25:52;101106.63;;;28.27;30.02
75136;BME280;63707;52.212;9.540;2022-09-21T10:28:20;101095.03;;;30.12;27.67
75136;BME280;63707;52.212;9.540;2022-09-21T10:30:46;101103.47;;;25.84;31.37
75136;BME280;63707;52.212;9.540;2022-09-21T10:33:17;101105.59;;;24.70;32.08
75136;BME280;63707;52.212;9.540;2022-09-21T10:35:48;101096.09;;;27.27;29.70
75136;BME280;63707;52.212;9.540;2022-09-21T10:38:16;101099.91;;;26.48;29.48
75136;BME280;63707;52.212;9.540;2022-09-21T10:40:44;101099.66;;;24.51;31.04
75136;BME280;63707;52.212;9.540;2022-09-21T10:43:22;101092.19;;;29.84;24.36
75136;BME280;63707;52.212;9.540;2022-09-21T10:45:54;101095.44;;;26.47;28.02
75136;BME280;63707;52.212;9.540;2022-09-21T10:48:22;101094.44;;;26.17;28.15
75136;BME280;63707;52.212;9.540;2022-09-21T10:50:49;101113.69;;;23.35;31.77
75136;BME280;63707;52.212;9.540;2022-09-21T10:53:22;101102.53;;;24.66;29.16
75136;BME280;63707;52.212;9.540;2022-09-21T10:55:55;101086.00;;;28.61;24.56
75136;BME280;63707;52.212;9.540;2022-09-21T10:58:23;101104.50;;;24.76;27.51
75136;BME280;63707;52.212;9.540;2022-09-21T11:00:49;101074.44;;;29.70;22.77
75136;BME280;63707;52.212;9.540;2022-09-21T11:03:32;101066.41;;;32.73;18.31
75136;BME280;63707;52.212;9.540;2022-09-21T11:06:07;101076.84;;;30.73;20.93
75136;BME280;63707;52.212;9.540;2022-09-21T11:08:37;101093.94;;;26.70;23.18
75136;BME280;63707;52.212;9.540;2022-09-21T11:11:17;101071.28;;;29.44;20.62
75136;BME280;63707;52.212;9.540;2022-09-21T11:13:48;101081.25;;;28.99;21.93
75136;BME280;63707;52.212;9.540;2022-09-21T11:16:27;101071.59;;;32.79;17.24
75136;BME280;63707;52.212;9.540;2022-09-21T11:18:58;101075.19;;;31.08;18.97
75136;BME280;63707;52.212;9.540;2022-09-21T11:21:31;101097.91;;;25.28;25.26
75136;BME280;63707;52.212;9.540;2022-09-21T11:24:04;101096.22;;;25.12;30.63
75136;BME280;63707;52.212;9.540;2022-09-21T11:26:38;101101.22;;;23.42;34.91
75136;BME280;63707;52.212;9.540;2022-09-21T11:29:10;101104.63;;;23.54;34.39
75136;BME280;63707;52.212;9.540;2022-09-21T11:31:49;101100.25;;;24.01;34.08
75136;BME280;63707;52.212;9.540;2022-09-21T11:34:42;101101.75;;;23.39;34.75
75136;BME280;63707;52.212;9.540;2022-09-21T11:37:29;101106.19;;;22.59;35.30
75136;BME280;63707;52.212;9.540;2022-09-21T11:40:11;101098.88;;;23.29;34.39
75136;BME280;63707;52.212;9.540;2022-09-21T11:42:47;101105.38;;;22.15;36.15
75136;BME280;63707;52.212;9.540;2022-09-21T11:45:28;101105.44;;;21.82;36.54
75136;BME280;63707;52.212;9.540;2022-09-21T11:48:06;101103.84;;;20.45;38.52
75136;BME280;63707;52.212;9.540;2022-09-21T11:50:55;101110.38;;;20.16;38.56
75136;BME280;63707;52.212;9.540;2022-09-21T11:53:35;101105.25;;;19.84;40.95
75136;BME280;63707;52.212;9.540;2022-09-21T11:56:28;101113.25;;;18.37;43.53
75136;BME280;63707;52.212;9.540;2022-09-21T11:59:06;101107.19;;;17.74;45.62
75136;BME280;63707;52.212;9.540;2022-09-21T12:01:48;101104.63;;;17.54;47.10
75136;BME280;63707;52.212;9.540;2022-09-21T12:04:31;101096.94;;;17.81;45.51
75136;BME280;63707;52.212;9.540;2022-09-21T12:07:09;101098.53;;;17.45;46.98
75136;BME280;63707;52.212;9.540;2022-09-21T12:09:57;101101.22;;;17.77;45.03
75136;BME280;63707;52.212;9.540;2022-09-21T12:12:29;101095.69;;;17.02;46.21
75136;BME280;63707;52.212;9.540;2022-09-21T12:15:03;101095.50;;;17.28;44.74
75136;BME280;63707;52.212;9.540;2022-09-21T12:17:42;101098.28;;;16.97;45.27
75136;BME280;63707;52.212;9.540;2022-09-21T12:20:15;101093.78;;;17.03;46.09
75136;BME280;63707;52.212;9.540;2022-09-21T12:22:44;101095.69;;;16.77;47.42
75136;BME280;63707;52.212;9.540;2022-09-21T12:25:15;101099.41;;;16.45;48.71
75136;BME280;63707;52.212;9.540;2022-09-21T12:27:46;101098.06;;;16.22;48.42
75136;BME280;63707;52.212;9.540;2022-09-21T12:30:15;101093.16;;;16.76;45.89
75136;BME280;63707;52.212;9.540;2022-09-21T12:32:49;101092.81;;;16.01;49.01
75136;BME280;63707;52.212;9.540;2022-09-21T12:35:22;101092.59;;;16.16;48.16
75136;BME280;63707;52.212;9.540;2022-09-21T12:37:53;101095.59;;;15.94;48.44
75136;BME280;63707;52.212;9.540;2022-09-21T12:40:26;101082.09;;;15.86;48.24
75136;BME280;63707;52.212;9.540;2022-09-21T12:42:57;101090.94;;;16.01;48.40
75136;BME280;63707;52.212;9.540;2022-09-21T12:45:29;101079.44;;;16.69;45.72
75136;BME280;63707;52.212;9.540;2022-09-21T12:47:59;101083.69;;;16.96;44.95
75136;BME280;63707;52.212;9.540;2022-09-21T12:50:31;101086.63;;;16.70;49.65
75136;BME280;63707;52.212;9.540;2022-09-21T12:53:00;101087.78;;;16.43;46.78
75136;BME280;63707;52.212;9.540;2022-09-21T12:55:33;101078.06;;;16.40;48.14
75136;BME280;63707;52.212;9.540;2022-09-21T12:58:08;101085.00;;;16.11;49.19
75136;BME280;63707;52.212;9.540;2022-09-21T13:00:42;101079.22;;;16.64;46.45
75136;BME280;63707;52.212;9.540;2022-09-21T13:03:15;101075.34;;;16.78;47.69
75136;BME280;63707;52.212;9.540;2022-09-21T13:05:53;101078.25;;;16.00;47.58
75136;BME280;63707;52.212;9.540;2022-09-21T13:08:24;101074.19;;;16.16;48.87
75136;BME280;63707;52.212;9.540;2022-09-21T13:10:57;101068.78;;;16.79;47.30
75136;BME280;63707;52.212;9.540;2022-09-21T13:13:28;101074.59;;;16.20;48.48
75136;BME280;63707;52.212;9.540;2022-09-21T13:15:57;101069.25;;;16.31;49.13
75136;BME280;63707;52.212;9.540;2022-09-21T13:18:26;101072.72;;;16.14;47.77
75136;BME280;63707;52.212;9.540;2022-09-21T13:20:53;101077.19;;;16.01;47.35
75136;BME280;63707;52.212;9.540;2022-09-21T13:23:24;101069.72;;;16.60;44.97
75136;BME280;63707;52.212;9.540;2022-09-21T13:25:59;101072.47;;;16.66;46.03
75136;BME280;63707;52.212;9.540;2022-09-21T13:31:53;101071.91;;;16.45;46.88
75136;BME280;63707;52.212;9.540;2022-09-21T13:34:32;101070.09;;;17.26;43.95
75136;BME280;63707;52.212;9.540;2022-09-21T13:37:32;101067.31;;;16.77;44.98
75136;BME280;63707;52.212;9.540;2022-09-21T13:43:18;101060.25;;;16.49;45.32
75136;BME280;63707;52.212;9.540;2022-09-21T13:45:54;101062.97;;;16.56;46.36
75136;BME280;63707;52.212;9.540;2022-09-21T13:48:21;101056.59;;;16.55;45.84
75136;BME280;63707;52.212;9.540;2022-09-21T13:50:55;101056.13;;;15.76;48.89
75136;BME280;63707;52.212;9.540;2022-09-21T13:53:24;101054.28;;;16.21;47.85
75136;BME280;63707;52.212;9.540;2022-09-21T13:55:53;101046.88;;;16.59;45.86
75136;BME280;63707;52.212;9.540;2022-09-21T13:58:21;101043.97;;;16.48;44.99
75136;BME280;63707;52.212;9.540;2022-09-21T14:00:54;101043.28;;;16.59;44.96
75136;BME280;63707;52.212;9.540;2022-09-21T14:03:24;101047.56;;;16.48;47.67
75136;BME280;63707;52.212;9.540;2022-09-21T14:05:52;101043.38;;;16.39;48.66
75136;BME280;63707;52.212;9.540;2022-09-21T14:08:22;101042.94;;;16.42;47.17
75136;BME280;63707;52.212;9.540;2022-09-21T14:10:51;101046.28;;;17.14;48.20
75136;BME280;63707;52.212;9.540;2022-09-21T14:13:26;101044.34;;;17.39;48.02
75136;BME280;63707;52.212;9.540;2022-09-21T14:15:52;101040.28;;;17.67;44.21
75136;BME280;63707;52.212;9.540;2022-09-21T14:18:36;101039.84;;;16.70;50.10
75136;BME280;63707;52.212;9.540;2022-09-21T14:21:13;101029.38;;;17.53;44.24
75136;BME280;63707;52.212;9.540;2022-09-21T14:24:18;101038.22;;;16.56;46.39
75136;BME280;63707;52.212;9.540;2022-09-21T14:26:49;101033.88;;;17.05;45.34
75136;BME280;63707;52.212;9.540;2022-09-21T14:29:20;101035.19;;;16.95;44.75
75136;BME280;63707;52.212;9.540;2022-09-21T14:31:49;101035.31;;;16.44;46.18
75136;BME280;63707;52.212;9.540;2022-09-21T14:34:20;101038.22;;;16.56;49.23
75136;BME280;63707;52.212;9.540;2022-09-21T14:36:49;101031.59;;;16.70;45.08
75136;BME280;63707;52.212;9.540;2022-09-21T14:39:20;101024.97;;;17.71;44.08
75136;BME280;63707;52.212;9.540;2022-09-21T14:41:49;101029.56;;;17.34;44.72
75136;BME280;63707;52.212;9.540;2022-09-21T14:44:19;101023.41;;;17.13;44.96
75136;BME280;63707;52.212;9.540;2022-09-21T14:46:56;101023.19;;;16.52;46.62
75136;BME280;63707;52.212;9.540;2022-09-21T14:49:45;101013.00;;;16.90;46.45
75136;BME280;63707;52.212;9.540;2022-09-21T14:52:26;101009.47;;;17.08;46.06
75136;BME280;63707;52.212;9.540;2022-09-21T14:55:02;101014.28;;;17.13;45.31
75136;BME280;63707;52.212;9.540;2022-09-21T14:57:47;101012.31;;;16.95;47.18
75136;BME280;63707;52.212;9.540;2022-09-21T15:00:18;101014.28;;;16.88;46.58
75136;BME280;63707;52.212;9.540;2022-09-21T15:02:47;101005.13;;;16.94;45.08
75136;BME280;63707;52.212;9.540;2022-09-21T15:05:23;101011.47;;;16.70;48.66
75136;BME280;63707;52.212;9.540;2022-09-21T15:08:14;101005.66;;;16.46;49.60
75136;BME280;63707;52.212;9.540;2022-09-21T15:11:08;100998.47;;;16.14;48.50
75136;BME280;63707;52.212;9.540;2022-09-21T15:13:43;101000.47;;;15.93;48.83
75136;BME280;63707;52.212;9.540;2022-09-21T15:16:25;100996.47;;;15.89;48.99
75136;BME280;63707;52.212;9.540;2022-09-21T15:19:10;100994.97;;;15.93;51.34
75136;BME280;63707;52.212;9.540;2022-09-21T15:21:40;101002.19;;;15.88;50.29
75136;BME280;63707;52.212;9.540;2022-09-21T15:24:18;100997.41;;;15.70;50.61
75136;BME280;63707;52.212;9.540;2022-09-21T15:26:45;100996.84;;;15.28;51.05
75136;BME280;63707;52.212;9.540;2022-09-21T15:29:19;100994.28;;;15.33;50.72
75136;BME280;63707;52.212;9.540;2022-09-21T15:31:48;100990.53;;;15.21;48.93
75136;BME280;63707;52.212;9.540;2022-09-21T15:34:14;100990.31;;;15.23;49.48
75136;BME280;63707;52.212;9.540;2022-09-21T15:36:42;100985.84;;;15.28;50.06
75136;BME280;63707;52.212;9.540;2022-09-21T15:39:20;100992.00;;;15.04;52.05
75136;BME280;63707;52.212;9.540;2022-09-21T15:41:47;100997.47;;;15.30;50.21
75136;BME280;63707;52.212;9.540;2022-09-21T15:44:21;101003.63;;;14.86;53.12
75136;BME280;63707;52.212;9.540;2022-09-21T15:46:50;100998.09;;;15.12;50.47
75136;BME280;63707;52.212;9.540;2022-09-21T15:49:17;100998.94;;;15.33;49.01
75136;BME280;63707;52.212;9.540;2022-09-21T15:51:49;100999.81;;;15.14;53.65
75136;BME280;63707;52.212;9.540;2022-09-21T15:54:24;100996.66;;;14.97;53.40
75136;BME280;63707;52.212;9.540;2022-09-21T15:56:51;101000.47;;;14.96;51.00
75136;BME280;63707;52.212;9.540;2022-09-21T15:59:19;100994.78;;;14.84;52.00
75136;BME280;63707;52.212;9.540;2022-09-21T16:01:48;100993.91;;;14.64;54.23
75136;BME280;63707;52.212;9.540;2022-09-21T16:04:16;101006.34;;;14.46;55.43
75136;BME280;63707;52.212;9.540;2022-09-21T16:06:46;101001.44;;;14.29;55.95
75136;BME280;63707;52.212;9.540;2022-09-21T16:09:38;100996.94;;;14.14;57.58
75136;BME280;63707;52.212;9.540;2022-09-21T16:12:38;100999.38;;;13.83;59.39
75136;BME280;63707;52.212;9.540;2022-09-21T16:15:07;101002.78;;;13.50;55.96
75136;BME280;63707;52.212;9.540;2022-09-21T16:17:38;101003.03;;;13.21;59.21
75136;BME280;63707;52.212;9.540;2022-09-21T16:20:16;101001.53;;;13.18;56.65
75136;BME280;63707;52.212;9.540;2022-09-21T16:22:45;101002.16;;;12.92;58.65
75136;BME280;63707;52.212;9.540;2022-09-21T16:25:25;101010.19;;;12.73;61.22
75136;BME280;63707;52.212;9.540;2022-09-21T16:27:53;101005.66;;;12.58;55.25
75136;BME280;63707;52.212;9.540;2022-09-21T16:30:42;101005.09;;;12.42;61.48
75136;BME280;63707;52.212;9.540;2022-09-21T16:33:55;101008.44;;;12.22;63.76
75136;BME280;63707;52.212;9.540;2022-09-21T16:36:36;101005.56;;;12.09;63.04
75136;BME280;63707;52.212;9.540;2022-09-21T16:39:03;101012.38;;;11.98;58.30
75136;BME280;63707;52.212;9.540;2022-09-21T16:41:36;101004.78;;;11.79;62.36
75136;BME280;63707;52.212;9.540;2022-09-21T16:44:04;101012.78;;;11.66;60.39
75136;BME280;63707;52.212;9.540;2022-09-21T16:46:30;101007.69;;;11.63;55.89
75136;BME280;63707;52.212;9.540;2022-09-21T16:48:56;101011.75;;;11.52;57.49
75136;BME280;63707;52.212;9.540;2022-09-21T16:51:25;101016.00;;;11.40;57.99
75136;BME280;63707;52.212;9.540;2022-09-21T16:53:51;101015.78;;;11.27;58.09
75136;BME280;63707;52.212;9.540;2022-09-21T16:56:17;101014.47;;;11.08;60.02
75136;BME280;63707;52.212;9.540;2022-09-21T16:58:47;101023.00;;;10.90;66.11
75136;BME280;63707;52.212;9.540;2022-09-21T17:01:14;101017.88;;;10.87;59.08
75136;BME280;63707;52.212;9.540;2022-09-21T17:03:41;101023.31;;;10.72;61.00
75136;BME280;63707;52.212;9.540;2022-09-21T17:06:11;101017.81;;;10.58;66.00
75136;BME280;63707;52.212;9.540;2022-09-21T17:08:39;101018.44;;;10.45;62.81
75136;BME280;63707;52.212;9.540;2022-09-21T17:11:04;101012.13;;;10.45;61.40
75136;BME280;63707;52.212;9.540;2022-09-21T17:13:31;101016.28;;;10.32;66.41
75136;BME280;63707;52.212;9.540;2022-09-21T17:15:59;101021.25;;;10.29;62.18
75136;BME280;63707;52.212;9.540;2022-09-21T17:18:27;101011.78;;;10.17;64.66
75136;BME280;63707;52.212;9.540;2022-09-21T17:20:53;101017.66;;;10.05;62.64
75136;BME280;63707;52.212;9.540;2022-09-21T17:23:18;101015.63;;;9.99;62.90
75136;BME280;63707;52.212;9.540;2022-09-21T17:25:44;101016.19;;;9.95;65.11
75136;BME280;63707;52.212;9.540;2022-09-21T17:28:13;101021.63;;;9.87;63.55
75136;BME280;63707;52.212;9.540;2022-09-21T17:30:39;101020.84;;;9.78;61.98
75136;BME280;63707;52.212;9.540;2022-09-21T17:33:08;101019.00;;;9.70;65.53
75136;BME280;63707;52.212;9.540;2022-09-21T17:35:36;101019.03;;;9.62;62.46
75136;BME280;63707;52.212;9.540;2022-09-21T17:38:03;101012.63;;;9.55;63.25
75136;BME280;63707;52.212;9.540;2022-09-21T17:40:30;101020.63;;;9.49;63.17
75136;BME280;63707;52.212;9.540;2022-09-21T17:43:02;101015.03;;;9.42;67.58
75136;BME280;63707;52.212;9.540;2022-09-21T17:45:37;101023.88;;;9.36;67.01
75136;BME280;63707;52.212;9.540;2022-09-21T17:48:04;101025.63;;;9.29;62.78
75136;BME280;63707;52.212;9.540;2022-09-21T17:50:33;101015.63;;;9.21;64.40
75136;BME280;63707;52.212;9.540;2022-09-21T17:52:59;101020.06;;;9.14;61.67
75136;BME280;63707;52.212;9.540;2022-09-21T17:55:47;101021.41;;;9.10;65.37
75136;BME280;63707;52.212;9.540;2022-09-21T17:58:29;101014.63;;;9.06;70.67
75136;BME280;63707;52.212;9.540;2022-09-21T18:01:00;101017.34;;;9.06;63.35
75136;BME280;63707;52.212;9.540;2022-09-21T18:03:31;101020.59;;;9.01;67.02
75136;BME280;63707;52.212;9.540;2022-09-21T18:07:16;100990.81;;;17.10;72.46
